Time;durP1;ratioP1;P1;durP2;ratioP2;P2;SDS_P1;SDS_P2;PMS_P1;PMS_P2;Temp;Humidity;BMP_temperature;BMP_pressure;BME280_temperature;BME280_humidity;BME280_pressure;Samples;Min_cycle;Max_cycle;Signal;HPM_P1;HPM_P2
2022/04/13 00:02:05;;;;;;;1.20;1.20;;;11.90;59.00;;;;;;5056383;28;20029;-69
2022/04/13 00:04:31;;;;;;;1.00;1.00;;;11.90;59.00;;;;;;5054689;28;20083;-70
2022/04/13 00:06:57;;;;;;;1.10;1.10;;;11.80;59.00;;;;;;5056177;28;20048;-68
2022/04/13 00:09:23;;;;;;;0.95;0.95;;;11.90;59.00;;;;;;5056415;28;20533;-68
2022/04/13 00:11:50;;;;;;;1.10;1.10;;;11.80;59.00;;;;;;5055057;28;20061;-68
2022/04/13 00:14:16;;;;;;;1.10;1.10;;;11.80;59.00;;;;;;5055982;28;20475;-68
2022/04/13 00:16:42;;;;;;;1.00;1.00;;;11.80;59.00;;;;;;5054826;28;20025;-68
2022/04/13 00:19:08;;;;;;;1.00;1.00;;;11.80;59.00;;;;;;5056066;28;20399;-68
2022/04/13 00:21:33;;;;;;;1.00;1.00;;;11.80;59.00;;;;;;5056019;28;20025;-68
2022/04/13 00:23:59;;;;;;;1.20;1.20;;;11.90;59.00;;;;;;5056108;28;20031;-68
2022/04/13 00:26:25;;;;;;;1.00;1.00;;;11.80;59.00;;;;;;5056155;28;20530;-68
2022/04/13 00:28:50;;;;;;;1.00;1.00;;;11.80;59.00;;;;;;5055715;28;20033;-68
2022/04/13 00:31:16;;;;;;;1.00;1.00;;;11.80;59.00;;;;;;5055763;28;20035;-68
2022/04/13 00:33:41;;;;;;;1.15;1.15;;;11.80;59.00;;;;;;5055790;28;20029;-69
2022/04/13 00:36:07;;;;;;;1.13;1.13;;;11.80;59.00;;;;;;5055724;28;20029;-68
2022/04/13 00:38:33;;;;;;;1.02;1.02;;;11.80;59.10;;;;;;5055595;28;20063;-68
2022/04/13 00:40:59;;;;;;;1.30;1.20;;;11.80;59.00;;;;;;5055679;28;20459;-69
2022/04/13 00:43:25;;;;;;;1.10;1.10;;;11.80;59.10;;;;;;5055450;28;20099;-68
2022/04/13 00:45:51;;;;;;;1.10;1.10;;;11.80;59.10;;;;;;5055548;28;20033;-68
2022/04/13 00:48:40;;;;;;;1.02;1.00;;;11.80;59.00;;;;;;5055434;28;20043;-68
2022/04/13 00:51:07;;;;;;;1.00;1.00;;;11.80;59.00;;;;;;5055704;28;20029;-69
2022/04/13 00:53:35;;;;;;;1.10;1.10;;;11.80;59.00;;;;;;5055449;28;20037;-68
2022/04/13 00:56:03;;;;;;;1.10;1.10;;;11.80;59.10;;;;;;5055326;28;20545;-69
2022/04/13 00:58:32;;;;;;;1.10;1.10;;;11.80;59.10;;;;;;5055364;28;20040;-66
2022/04/13 01:01:01;;;;;;;1.13;1.13;;;11.70;59.10;;;;;;5054952;28;20032;-68
2022/04/13 01:03:28;;;;;;;1.00;1.00;;;11.70;59.10;;;;;;5055290;28;20036;-68
2022/04/13 01:05:54;;;;;;;1.10;1.10;;;11.70;59.10;;;;;;5054567;28;20025;-68
2022/04/13 01:08:20;;;;;;;1.00;1.00;;;11.70;59.10;;;;;;5055014;28;20037;-68
2022/04/13 01:10:48;;;;;;;1.00;1.00;;;11.70;59.10;;;;;;5055119;28;20126;-69
2022/04/13 01:13:16;;;;;;;1.10;1.10;;;11.70;59.70;;;;;;5054553;28;20051;-67
2022/04/13 01:15:42;;;;;;;1.10;1.10;;;11.70;59.10;;;;;;5054054;28;20039;-68
2022/04/13 01:18:08;;;;;;;1.30;1.20;;;11.70;59.20;;;;;;5053619;28;20166;-68
2022/04/13 01:20:38;;;;;;;1.05;1.05;;;11.70;59.20;;;;;;5054871;28;20032;-67
2022/04/13 01:23:03;;;;;;;1.17;1.17;;;11.70;59.20;;;;;;5054769;28;20059;-67
2022/04/13 01:25:29;;;;;;;1.20;1.20;;;11.70;59.20;;;;;;5054804;28;20082;-67
2022/04/13 01:27:55;;;;;;;1.10;1.10;;;11.70;59.20;;;;;;5054587;28;20071;-67
2022/04/13 01:30:23;;;;;;;1.08;1.08;;;11.70;59.20;;;;;;5055296;28;20379;-68
2022/04/13 01:32:51;;;;;;;1.10;1.10;;;11.70;59.20;;;;;;5054648;28;20032;-67
2022/04/13 01:35:16;;;;;;;1.20;1.20;;;11.70;59.20;;;;;;5054692;28;20119;-67
2022/04/13 01:37:42;;;;;;;1.05;1.05;;;11.70;59.20;;;;;;5054334;28;20067;-67
2022/04/13 01:40:08;;;;;;;1.00;1.00;;;11.70;59.20;;;;;;5054512;28;20056;-67
2022/04/13 01:42:34;;;;;;;1.10;1.10;;;11.70;59.20;;;;;;5054063;28;20044;-68
2022/04/13 01:44:59;;;;;;;1.35;1.35;;;11.70;59.20;;;;;;5054293;28;20021;-67
2022/04/13 01:47:25;;;;;;;1.00;1.00;;;11.70;59.30;;;;;;5054214;28;20031;-67
2022/04/13 01:49:51;;;;;;;1.25;1.20;;;11.70;59.20;;;;;;5054163;28;20031;-67
2022/04/13 01:52:16;;;;;;;1.17;1.15;;;11.70;59.20;;;;;;5054352;28;20032;-68
2022/04/13 01:54:42;;;;;;;1.00;1.00;;;11.70;59.20;;;;;;5054065;28;20028;-68
2022/04/13 01:57:08;;;;;;;1.20;1.20;;;11.60;59.20;;;;;;5054148;28;20355;-68
2022/04/13 01:59:33;;;;;;;1.15;1.15;;;11.60;59.80;;;;;;5052898;28;20025;-68
2022/04/13 02:02:04;;;;;;;1.15;1.15;;;11.60;59.20;;;;;;5053942;28;20052;-68
2022/04/13 02:04:30;;;;;;;1.10;1.10;;;11.60;59.20;;;;;;5054375;28;20029;-68
2022/04/13 02:06:56;;;;;;;1.00;1.00;;;11.70;59.20;;;;;;5053816;28;20489;-67
2022/04/13 02:09:22;;;;;;;1.15;1.10;;;11.70;59.20;;;;;;5052634;28;20360;-67
2022/04/13 02:11:48;;;;;;;1.13;1.10;;;11.60;59.20;;;;;;5053589;28;20036;-67
2022/04/13 02:14:14;;;;;;;1.02;1.02;;;11.70;59.30;;;;;;5052538;28;20025;-67
2022/04/13 02:16:40;;;;;;;1.30;1.30;;;11.60;59.20;;;;;;5053690;28;20024;-67
2022/04/13 02:19:11;;;;;;;1.17;1.17;;;11.60;59.20;;;;;;5052736;28;20032;-67
2022/04/13 02:21:38;;;;;;;1.13;1.13;;;11.60;59.30;;;;;;5052703;28;20025;-67
2022/04/13 02:24:04;;;;;;;1.10;1.10;;;11.60;59.20;;;;;;5053702;28;20029;-67
2022/04/13 02:26:29;;;;;;;1.10;1.10;;;11.70;59.30;;;;;;5053640;28;20032;-67
2022/04/13 02:28:55;;;;;;;1.30;1.20;;;11.60;59.30;;;;;;5053606;28;20033;-67
2022/04/13 02:31:21;;;;;;;1.00;1.00;;;11.60;59.30;;;;;;5053530;28;20031;-67
2022/04/13 02:33:48;;;;;;;1.20;1.20;;;11.60;59.30;;;;;;5052294;28;20067;-68
2022/04/13 02:36:14;;;;;;;1.20;1.20;;;11.60;59.30;;;;;;5053437;28;20079;-67
2022/04/13 02:38:39;;;;;;;1.30;1.20;;;11.60;59.30;;;;;;5053565;28;20068;-68
2022/04/13 02:41:05;;;;;;;1.20;1.20;;;11.60;59.30;;;;;;5053720;28;20061;-67
2022/04/13 02:43:31;;;;;;;1.20;1.20;;;11.60;59.30;;;;;;5053550;28;20045;-68
2022/04/13 02:45:59;;;;;;;1.20;1.20;;;11.60;59.30;;;;;;5053565;28;20025;-68
2022/04/13 02:48:25;;;;;;;1.30;1.20;;;11.60;59.30;;;;;;5053130;28;20103;-68
2022/04/13 02:50:52;;;;;;;1.10;1.10;;;11.50;59.30;;;;;;5053480;28;20029;-68
2022/04/13 02:53:18;;;;;;;1.10;1.10;;;11.50;59.30;;;;;;5053304;28;20070;-68
2022/04/13 02:55:44;;;;;;;1.20;1.20;;;11.50;59.30;;;;;;5052703;28;20076;-67
2022/04/13 02:58:10;;;;;;;1.15;1.15;;;11.60;59.40;;;;;;5053349;28;20497;-68
2022/04/13 03:00:36;;;;;;;1.00;1.00;;;11.50;59.40;;;;;;5053454;28;20065;-67
2022/04/13 03:03:05;;;;;;;1.17;1.17;;;11.60;59.40;;;;;;5053205;28;20028;-68
2022/04/13 03:05:30;;;;;;;1.20;1.13;;;11.50;59.40;;;;;;5053562;28;20405;-68
2022/04/13 03:07:56;;;;;;;1.10;1.10;;;11.50;59.40;;;;;;5053126;28;20029;-69
2022/04/13 03:10:22;;;;;;;1.10;1.10;;;11.50;59.40;;;;;;5053723;28;20497;-67
2022/04/13 03:12:47;;;;;;;1.25;1.20;;;11.60;59.40;;;;;;5053267;28;20040;-68
2022/04/13 03:15:14;;;;;;;1.10;1.10;;;11.50;59.40;;;;;;5053347;28;20024;-68
2022/04/13 03:17:40;;;;;;;1.10;1.10;;;11.50;59.40;;;;;;5052118;28;20028;-68
2022/04/13 03:20:07;;;;;;;1.10;1.10;;;11.50;59.40;;;;;;5051453;28;20033;-68
2022/04/13 03:22:33;;;;;;;1.20;1.20;;;11.50;59.40;;;;;;5052784;28;20029;-68
2022/04/13 03:25:00;;;;;;;1.10;1.10;;;11.50;59.40;;;;;;5052291;28;20082;-68
2022/04/13 03:27:26;;;;;;;1.20;1.20;;;11.50;59.40;;;;;;5053071;28;20021;-68
2022/04/13 03:29:51;;;;;;;1.10;1.10;;;11.50;59.50;;;;;;5054386;28;20375;-69
2022/04/13 03:32:17;;;;;;;1.00;1.00;;;11.50;59.40;;;;;;5056822;28;20424;-69
2022/04/13 03:34:43;;;;;;;1.05;1.05;;;11.50;59.50;;;;;;5055512;28;20144;-69
2022/04/13 03:37:08;;;;;;;1.10;1.10;;;11.50;59.50;;;;;;5056647;28;20025;-68
2022/04/13 03:39:34;;;;;;;1.08;1.08;;;11.50;59.50;;;;;;5056772;28;20033;-67
2022/04/13 03:41:59;;;;;;;1.10;1.10;;;11.50;59.50;;;;;;5056643;28;20028;-68
2022/04/13 03:44:25;;;;;;;1.10;1.10;;;11.50;59.50;;;;;;5056918;28;20047;-68
2022/04/13 03:46:51;;;;;;;1.08;1.08;;;11.50;59.50;;;;;;5056535;28;20482;-68
2022/04/13 03:49:17;;;;;;;1.20;1.20;;;11.50;59.50;;;;;;5056479;28;20036;-68
2022/04/13 03:51:43;;;;;;;1.23;1.23;;;11.50;59.50;;;;;;5054894;28;20036;-68
2022/04/13 03:54:08;;;;;;;1.10;1.10;;;11.50;59.50;;;;;;5056764;28;20475;-69
2022/04/13 03:56:36;;;;;;;1.10;1.10;;;11.50;59.50;;;;;;5056587;28;20098;-68
2022/04/13 03:59:02;;;;;;;1.10;1.10;;;11.50;59.50;;;;;;5056302;28;20486;-69
2022/04/13 04:01:28;;;;;;;1.00;1.00;;;11.50;59.50;;;;;;5055786;28;20035;-68
2022/04/13 04:03:54;;;;;;;1.20;1.10;;;11.50;59.50;;;;;;5055637;28;20036;-69
2022/04/13 04:06:20;;;;;;;1.05;1.05;;;11.50;59.50;;;;;;5054677;28;20104;-68
2022/04/13 04:08:46;;;;;;;1.10;1.10;;;11.50;59.50;;;;;;5056604;28;20043;-68
2022/04/13 04:11:12;;;;;;;1.10;1.10;;;11.50;59.50;;;;;;5056405;28;20119;-68
2022/04/13 04:13:38;;;;;;;1.40;1.30;;;11.50;59.50;;;;;;5056283;28;20028;-67
2022/04/13 04:16:04;;;;;;;1.10;1.10;;;11.50;59.50;;;;;;5055707;28;20027;-68
2022/04/13 04:18:30;;;;;;;1.10;1.00;;;11.50;59.50;;;;;;5054736;28;20033;-68
2022/04/13 04:20:55;;;;;;;0.90;0.90;;;11.50;59.50;;;;;;5045724;28;20030;-68
2022/04/13 04:23:21;;;;;;;0.90;0.90;;;11.50;59.50;;;;;;5036045;28;20033;-68
2022/04/13 04:25:47;;;;;;;1.20;1.10;;;11.50;59.50;;;;;;5042558;28;20506;-68
2022/04/13 04:28:13;;;;;;;1.00;1.00;;;11.50;59.50;;;;;;5055768;28;20032;-68
2022/04/13 04:30:39;;;;;;;1.10;1.10;;;11.50;59.40;;;;;;5049436;28;20029;-69
2022/04/13 04:33:05;;;;;;;1.10;1.10;;;11.50;59.50;;;;;;5034551;28;20040;-69
2022/04/13 04:35:32;;;;;;;0.90;0.90;;;11.50;59.50;;;;;;5033923;28;20120;-68
2022/04/13 04:38:02;;;;;;;1.00;1.00;;;11.50;59.50;;;;;;5034350;28;20025;-68
2022/04/13 04:40:28;;;;;;;1.30;1.20;;;11.50;59.40;;;;;;5033347;28;20544;-68
2022/04/13 04:42:54;;;;;;;1.00;1.00;;;11.60;59.50;;;;;;5033725;28;20128;-67
2022/04/13 04:45:21;;;;;;;1.02;1.02;;;11.60;59.40;;;;;;5036412;28;20047;-67
2022/04/13 04:47:49;;;;;;;1.00;1.00;;;11.60;59.50;;;;;;5055150;28;20021;-67
2022/04/13 04:50:15;;;;;;;0.98;0.98;;;11.60;59.40;;;;;;5047420;28;20060;-67
2022/04/13 04:52:42;;;;;;;1.13;1.05;;;11.60;59.40;;;;;;5034542;28;20434;-67
2022/04/13 04:55:09;;;;;;;1.10;1.10;;;11.10;59.20;;;;;;5034281;28;20029;-67
2022/04/13 04:57:35;;;;;;;1.00;1.00;;;11.60;59.40;;;;;;5045426;28;20501;-67
2022/04/13 05:00:01;;;;;;;1.20;1.20;;;11.70;59.50;;;;;;5054447;28;20037;-68
2022/04/13 05:02:27;;;;;;;1.05;1.05;;;11.60;59.40;;;;;;5041390;28;20452;-68
2022/04/13 05:04:53;;;;;;;0.90;0.90;;;11.60;59.40;;;;;;5042917;28;20375;-68
2022/04/13 05:07:19;;;;;;;1.27;1.27;;;11.60;59.40;;;;;;5042560;28;20033;-68
2022/04/13 05:09:45;;;;;;;1.20;1.20;;;11.60;59.40;;;;;;5044028;28;20094;-69
2022/04/13 05:12:11;;;;;;;1.20;1.20;;;11.60;59.40;;;;;;5043801;28;20017;-68
2022/04/13 05:14:36;;;;;;;1.10;1.10;;;11.70;59.40;;;;;;5041073;28;20017;-69
2022/04/13 05:17:02;;;;;;;1.00;1.00;;;11.70;59.50;;;;;;5043915;28;20024;-68
2022/04/13 05:19:28;;;;;;;1.17;1.17;;;11.70;59.40;;;;;;5039752;28;20034;-70
2022/04/13 05:21:54;;;;;;;0.98;0.98;;;11.70;59.40;;;;;;5042040;28;20333;-69
2022/04/13 05:24:19;;;;;;;1.00;1.00;;;11.70;59.40;;;;;;5041705;28;20472;-68
2022/04/13 05:26:45;;;;;;;1.05;1.05;;;11.70;59.40;;;;;;5043612;28;20019;-68
2022/04/13 05:29:11;;;;;;;1.10;1.10;;;11.70;59.40;;;;;;5040336;28;20029;-68
2022/04/13 05:31:36;;;;;;;1.05;1.05;;;11.70;59.30;;;;;;5044207;28;20104;-69
2022/04/13 05:34:02;;;;;;;1.02;1.02;;;11.70;59.40;;;;;;5040297;28;20442;-69
2022/04/13 05:36:28;;;;;;;1.13;1.13;;;11.70;59.30;;;;;;5032161;28;20079;-68
2022/04/13 05:38:54;;;;;;;1.10;1.10;;;11.70;59.30;;;;;;5032135;28;20037;-68
2022/04/13 05:41:19;;;;;;;1.35;1.25;;;11.70;59.30;;;;;;5032109;28;20025;-69
2022/04/13 05:43:45;;;;;;;1.08;1.08;;;11.70;59.30;;;;;;5035064;28;20045;-69
2022/04/13 05:46:10;;;;;;;1.17;1.17;;;11.70;59.30;;;;;;5033566;28;20035;-67
2022/04/13 05:48:36;;;;;;;1.10;1.10;;;11.70;59.30;;;;;;5038864;28;20029;-67
2022/04/13 05:51:02;;;;;;;1.20;1.20;;;11.80;59.30;;;;;;5048135;28;20041;-67
2022/04/13 05:53:28;;;;;;;1.00;1.00;;;11.70;59.30;;;;;;5038142;28;20029;-67
2022/04/13 05:55:56;;;;;;;1.00;1.00;;;11.80;59.30;;;;;;5037135;28;20018;-70
2022/04/13 05:58:25;;;;;;;1.00;1.00;;;11.80;59.30;;;;;;5051732;28;20541;-67
2022/04/13 06:00:51;;;;;;;1.00;1.00;;;11.80;59.30;;;;;;5052983;28;20036;-67
2022/04/13 06:03:20;;;;;;;1.20;1.20;;;11.80;59.30;;;;;;5042361;28;20399;-67
2022/04/13 06:05:46;;;;;;;0.90;0.90;;;11.80;59.30;;;;;;5041480;28;20104;-65
2022/04/13 06:08:13;;;;;;;1.17;1.17;;;11.80;59.30;;;;;;5044201;28;20029;-66
2022/04/13 06:10:39;;;;;;;1.02;1.02;;;11.70;59.20;;;;;;5041927;28;20041;-65
2022/04/13 06:13:04;;;;;;;1.20;1.10;;;11.80;59.30;;;;;;5041753;28;20021;-66
2022/04/13 06:15:31;;;;;;;1.38;1.30;;;11.80;59.30;;;;;;5042596;28;20021;-65
2022/04/13 06:17:57;;;;;;;1.38;1.27;;;11.80;59.30;;;;;;5039872;28;20026;-66
2022/04/13 06:20:23;;;;;;;1.42;1.33;;;11.80;59.30;;;;;;5041402;28;20074;-66
2022/04/13 06:22:49;;;;;;;1.55;1.45;;;11.80;59.30;;;;;;5042837;28;20026;-68
2022/04/13 06:25:15;;;;;;;1.10;1.10;;;11.80;59.30;;;;;;5041443;28;20448;-65
2022/04/13 06:27:41;;;;;;;1.20;1.20;;;11.80;59.30;;;;;;5037418;28;20030;-67
2022/04/13 06:30:09;;;;;;;1.20;1.20;;;11.90;59.30;;;;;;5031983;28;20486;-67
2022/04/13 06:32:42;;;;;;;1.40;1.30;;;11.80;59.20;;;;;;5041361;28;20037;-68
2022/04/13 06:35:14;;;;;;;1.40;1.30;;;11.90;59.40;;;;;;5040595;28;20028;-63
2022/04/13 06:37:42;;;;;;;1.15;1.15;;;11.90;59.30;;;;;;5037989;28;20065;-66
2022/04/13 06:40:08;;;;;;;1.30;1.30;;;11.90;59.30;;;;;;5031069;28;20091;-63
2022/04/13 06:42:37;;;;;;;1.10;1.10;;;11.90;59.30;;;;;;5032021;28;20056;-63
2022/04/13 06:45:08;;;;;;;1.50;1.40;;;11.90;59.30;;;;;;5031666;28;20060;-63
2022/04/13 06:47:33;;;;;;;1.08;1.08;;;11.90;59.30;;;;;;5032430;28;20028;-63
2022/04/13 06:49:59;;;;;;;1.38;1.27;;;11.90;59.20;;;;;;5032581;28;20033;-63
2022/04/13 06:52:25;;;;;;;1.10;1.10;;;11.90;59.20;;;;;;5031010;28;20116;-63
2022/04/13 06:54:50;;;;;;;1.33;1.23;;;11.90;59.20;;;;;;5032229;28;20026;-63
2022/04/13 06:57:16;;;;;;;1.40;1.30;;;11.90;59.20;;;;;;5030877;28;20026;-64
2022/04/13 06:59:42;;;;;;;1.40;1.30;;;12.00;59.30;;;;;;5031527;28;20460;-64
2022/04/13 07:02:10;;;;;;;1.30;1.27;;;12.00;59.30;;;;;;5033278;28;20036;-63
2022/04/13 07:04:37;;;;;;;1.25;1.25;;;12.00;59.30;;;;;;5034453;28;20120;-63
2022/04/13 07:07:03;;;;;;;1.50;1.40;;;12.00;59.20;;;;;;5035956;28;20041;-64
2022/04/13 07:09:29;;;;;;;1.50;1.40;;;12.00;59.20;;;;;;5037011;28;20072;-63
2022/04/13 07:11:54;;;;;;;1.40;1.30;;;12.00;59.20;;;;;;5036980;28;20026;-63
2022/04/13 07:14:20;;;;;;;1.38;1.30;;;12.10;59.20;;;;;;5037068;28;20025;-64
2022/04/13 07:16:46;;;;;;;1.23;1.23;;;12.10;59.20;;;;;;5037202;28;20517;-64
2022/04/13 07:19:12;;;;;;;1.38;1.30;;;12.10;59.20;;;;;;5037291;28;20488;-63
2022/04/13 07:21:37;;;;;;;1.38;1.38;;;12.10;59.10;;;;;;5037177;28;20452;-64
2022/04/13 07:24:03;;;;;;;1.40;1.30;;;12.10;59.10;;;;;;5037174;28;20103;-64
2022/04/13 07:26:29;;;;;;;1.50;1.40;;;12.10;59.10;;;;;;5037103;28;20036;-64
2022/04/13 07:28:55;;;;;;;1.35;1.30;;;12.10;59.10;;;;;;5036812;28;20029;-63
2022/04/13 07:31:20;;;;;;;1.33;1.27;;;12.20;59.10;;;;;;5036890;28;20034;-64
2022/04/13 07:33:46;;;;;;;1.55;1.45;;;12.20;59.10;;;;;;5036924;28;20030;-64
2022/04/13 07:36:14;;;;;;;1.50;1.40;;;12.20;59.10;;;;;;5036761;28;20033;-64
2022/04/13 07:38:40;;;;;;;1.60;1.50;;;12.20;59.10;;;;;;5036797;28;20037;-63
2022/04/13 07:41:05;;;;;;;1.38;1.27;;;12.20;59.10;;;;;;5036948;28;20348;-64
2022/04/13 07:43:31;;;;;;;1.88;1.30;;;12.20;59.00;;;;;;5036998;28;20368;-63
2022/04/13 07:45:57;;;;;;;1.50;1.40;;;12.20;59.00;;;;;;5036660;28;20025;-64
2022/04/13 07:48:23;;;;;;;1.42;1.33;;;12.20;59.00;;;;;;5036666;28;20466;-64
2022/04/13 07:50:48;;;;;;;1.10;1.10;;;12.20;59.00;;;;;;5036522;28;20039;-64
2022/04/13 07:53:15;;;;;;;1.60;1.50;;;12.20;59.00;;;;;;5036167;28;20452;-64
2022/04/13 07:55:40;;;;;;;1.40;1.30;;;12.20;59.00;;;;;;5036515;28;20045;-64
2022/04/13 07:58:06;;;;;;;1.40;1.30;;;12.20;59.00;;;;;;5036539;28;20024;-64
2022/04/13 08:00:32;;;;;;;1.20;1.20;;;12.20;59.00;;;;;;5036390;28;20029;-65
2022/04/13 08:02:58;;;;;;;1.30;1.30;;;12.10;59.00;;;;;;5036850;28;20028;-63
2022/04/13 08:05:24;;;;;;;1.20;1.20;;;12.10;59.00;;;;;;5036155;28;20109;-63
2022/04/13 08:07:49;;;;;;;1.30;1.30;;;12.10;59.00;;;;;;5035918;28;20124;-65
2022/04/13 08:10:15;;;;;;;1.40;1.30;;;12.10;59.10;;;;;;5036282;28;20033;-65
2022/04/13 08:12:42;;;;;;;1.30;1.25;;;12.10;59.10;;;;;;5036286;28;20033;-65
2022/04/13 08:15:09;;;;;;;1.20;1.20;;;12.10;59.10;;;;;;5034855;28;20025;-64
2022/04/13 08:17:35;;;;;;;1.23;1.23;;;12.00;59.10;;;;;;5035017;28;20044;-64
2022/04/13 08:20:01;;;;;;;1.35;1.30;;;12.00;59.20;;;;;;5036136;28;20022;-64
2022/04/13 08:22:27;;;;;;;1.45;1.35;;;12.00;59.20;;;;;;5035828;28;20032;-64
2022/04/13 08:24:53;;;;;;;1.40;1.30;;;12.00;59.20;;;;;;5036135;28;20025;-65
2022/04/13 08:27:19;;;;;;;1.60;1.50;;;12.00;59.20;;;;;;5034850;28;20021;-64
2022/04/13 08:29:48;;;;;;;1.33;1.20;;;12.00;59.20;;;;;;5036109;28;20069;-65
2022/04/13 08:32:18;;;;;;;1.50;1.40;;;12.00;59.20;;;;;;5036337;28;20510;-64
2022/04/13 08:34:45;;;;;;;1.60;1.50;;;12.00;59.20;;;;;;5035932;28;20530;-65
2022/04/13 08:37:11;;;;;;;1.52;1.42;;;12.00;59.30;;;;;;5035473;28;20033;-64
2022/04/13 08:39:37;;;;;;;1.40;1.30;;;12.00;59.30;;;;;;5035781;28;20025;-64
2022/04/13 08:42:12;;;;;;;1.38;1.35;;;12.00;59.30;;;;;;5034839;28;20144;-65
2022/04/13 08:44:46;;;;;;;1.50;1.40;;;12.10;59.30;;;;;;5035921;28;20033;-64
2022/04/13 08:47:17;;;;;;;1.45;1.35;;;12.10;59.20;;;;;;5035478;28;20103;-64
2022/04/13 08:49:44;;;;;;;1.40;1.30;;;12.10;59.10;;;;;;5035154;28;20116;-65
2022/04/13 08:52:13;;;;;;;1.58;1.48;;;12.20;59.20;;;;;;5035519;28;20033;-64
2022/04/13 08:54:56;;;;;;;1.48;1.38;;;12.20;59.10;;;;;;5035426;28;20021;-64
2022/04/13 08:57:25;;;;;;;1.40;1.27;;;12.20;59.10;;;;;;5034276;28;20337;-64
2022/04/13 09:00:05;;;;;;;1.38;1.30;;;12.20;59.10;;;;;;5035383;28;20108;-64
2022/04/13 09:03:09;;;;;;;2.08;1.35;;;12.20;59.10;;;;;;5035580;28;20025;-64
2022/04/13 09:05:36;;;;;;;1.35;1.30;;;12.20;59.10;;;;;;5035191;28;20118;-64
2022/04/13 09:08:19;;;;;;;1.40;1.30;;;12.20;59.00;;;;;;5034739;28;20025;-64
2022/04/13 09:10:47;;;;;;;1.35;1.25;;;12.30;59.00;;;;;;5034805;28;20037;-65
2022/04/13 09:13:13;;;;;;;1.42;1.35;;;12.20;59.00;;;;;;5034740;28;20022;-64
2022/04/13 09:15:40;;;;;;;1.50;1.40;;;12.20;59.00;;;;;;5033639;28;20460;-65
2022/04/13 09:18:09;;;;;;;1.52;1.42;;;12.20;59.00;;;;;;5035156;28;20022;-65
2022/04/13 09:20:36;;;;;;;1.40;1.30;;;12.20;59.10;;;;;;5034824;28;20025;-63
2022/04/13 09:23:03;;;;;;;1.70;1.60;;;12.20;59.10;;;;;;5034489;28;20103;-64
2022/04/13 09:25:31;;;;;;;1.45;1.35;;;12.10;59.10;;;;;;5034768;28;20080;-64
2022/04/13 09:27:58;;;;;;;1.40;1.30;;;12.10;59.20;;;;;;5032610;28;20136;-65
2022/04/13 09:30:25;;;;;;;1.60;1.50;;;12.10;59.20;;;;;;5034486;28;20036;-65
2022/04/13 09:32:51;;;;;;;1.40;1.30;;;12.10;59.30;;;;;;5034460;28;20369;-64
2022/04/13 09:35:18;;;;;;;1.38;1.27;;;12.10;59.40;;;;;;5034378;28;20059;-64
2022/04/13 09:37:44;;;;;;;1.60;1.40;;;12.00;59.30;;;;;;5034610;28;20075;-63
2022/04/13 09:40:24;;;;;;;1.50;1.40;;;12.00;59.90;;;;;;5044937;28;20126;-64
2022/04/13 09:42:50;;;;;;;1.40;1.30;;;12.00;59.40;;;;;;5054026;28;20123;-64
2022/04/13 09:45:16;;;;;;;1.58;1.48;;;12.00;59.40;;;;;;5054211;28;20448;-63
2022/04/13 09:47:45;;;;;;;1.30;1.30;;;12.00;59.40;;;;;;5053795;28;20021;-63
2022/04/13 09:50:24;;;;;;;1.80;1.50;;;12.00;59.40;;;;;;5053873;28;20048;-63
2022/04/13 09:52:54;;;;;;;1.40;1.30;;;12.00;59.40;;;;;;5054146;28;20386;-63
2022/04/13 09:55:22;;;;;;;1.35;1.30;;;12.00;59.40;;;;;;5052845;28;20455;-63
2022/04/13 09:57:47;;;;;;;1.90;1.75;;;11.90;59.30;;;;;;5054172;28;20463;-64
2022/04/13 10:00:14;;;;;;;1.92;1.20;;;11.90;59.40;;;;;;5053815;28;20075;-63
2022/04/13 10:06:01;;;;;;;1.50;1.40;;;11.90;59.40;;;;;;5053891;28;20048;-63
2022/04/13 10:08:30;;;;;;;1.50;1.40;;;12.00;59.50;;;;;;5053563;28;20032;-63
2022/04/13 10:10:57;;;;;;;1.50;1.40;;;12.00;59.40;;;;;;5053668;28;20021;-64
2022/04/13 10:13:30;;;;;;;1.70;1.60;;;12.00;59.40;;;;;;5053877;28;20064;-64
2022/04/13 10:15:57;;;;;;;1.55;1.45;;;12.00;59.40;;;;;;5053755;28;20025;-63
2022/04/13 10:18:28;;;;;;;1.33;1.30;;;12.10;59.50;;;;;;5053625;28;20033;-63
2022/04/13 10:20:58;;;;;;;1.60;1.50;;;12.10;59.50;;;;;;5052715;28;20041;-63
2022/04/13 10:23:24;;;;;;;1.60;1.50;;;12.20;59.50;;;;;;5053450;28;20029;-64
2022/04/13 10:29:17;;;;;;;1.60;1.50;;;12.30;59.50;;;;;;5053339;28;20065;-63
2022/04/13 10:32:11;;;;;;;1.45;1.35;;;12.40;59.40;;;;;;5053222;28;20375;-64
2022/04/13 10:34:51;;;;;;;1.35;1.25;;;12.50;59.40;;;;;;5053762;28;20123;-63
2022/04/13 10:37:21;;;;;;;1.30;1.30;;;12.50;59.20;;;;;;5052181;28;20028;-65
2022/04/13 10:39:48;;;;;;;1.42;1.33;;;12.50;59.10;;;;;;5052552;28;20040;-63
2022/04/13 10:42:16;;;;;;;1.30;1.30;;;12.60;59.10;;;;;;5052968;28;20045;-64
2022/04/13 10:44:45;;;;;;;1.40;1.30;;;12.60;59.10;;;;;;5053318;28;20426;-64
2022/04/13 10:47:16;;;;;;;1.13;1.13;;;12.60;59.00;;;;;;5053142;28;20029;-63
2022/04/13 10:50:03;;;;;;;1.40;1.30;;;12.60;59.00;;;;;;5053475;28;20100;-63
2022/04/13 10:52:50;;;;;;;1.55;1.45;;;12.70;59.10;;;;;;5051907;28;20033;-64
2022/04/13 10:55:20;;;;;;;1.40;1.30;;;12.70;59.00;;;;;;5053166;28;20033;-64
2022/04/13 10:58:13;;;;;;;1.42;1.33;;;12.70;59.00;;;;;;5052832;28;20021;-64
2022/04/13 11:00:43;;;;;;;1.30;1.20;;;12.80;59.00;;;;;;5053335;28;20021;-64
2022/04/13 11:03:09;;;;;;;1.50;1.40;;;12.80;58.90;;;;;;5053006;28;20025;-65
2022/04/13 11:05:35;;;;;;;1.17;1.17;;;12.90;58.90;;;;;;5053377;28;20025;-64
2022/04/13 11:08:04;;;;;;;1.50;1.40;;;12.90;58.90;;;;;;5053115;28;20070;-64
2022/04/13 11:10:32;;;;;;;1.30;1.30;;;12.90;58.90;;;;;;5051977;28;20025;-64
2022/04/13 11:12:59;;;;;;;1.10;1.10;;;12.90;58.80;;;;;;5053190;28;20036;-64
2022/04/13 11:15:43;;;;;;;1.30;1.30;;;13.00;58.80;;;;;;5052945;28;20032;-64
2022/04/13 11:18:13;;;;;;;1.35;1.25;;;13.00;58.80;;;;;;5053466;28;20095;-64
2022/04/13 11:21:02;;;;;;;1.02;1.02;;;13.00;58.70;;;;;;5053269;28;20031;-64
2022/04/13 11:23:48;;;;;;;1.40;1.30;;;13.10;58.70;;;;;;5052295;28;20036;-64
2022/04/13 11:26:14;;;;;;;1.55;1.38;;;13.10;58.60;;;;;;5053311;28;20379;-64
2022/04/13 11:28:39;;;;;;;1.35;1.25;;;13.10;58.60;;;;;;5052861;28;20047;-65
2022/04/13 11:31:13;;;;;;;1.58;1.38;;;13.20;58.60;;;;;;5052962;28;20414;-64
2022/04/13 11:33:57;;;;;;;1.20;1.20;;;13.10;58.50;;;;;;5052873;28;20021;-64
2022/04/13 11:36:27;;;;;;;1.25;1.20;;;13.10;58.50;;;;;;5052976;28;20060;-64
2022/04/13 11:38:53;;;;;;;1.30;1.20;;;13.20;58.50;;;;;;5051948;28;20032;-64
2022/04/13 11:41:20;;;;;;;1.17;1.17;;;13.20;58.50;;;;;;5052919;28;20025;-64
2022/04/13 11:43:47;;;;;;;1.30;1.20;;;13.20;58.50;;;;;;5051288;28;20136;-64
2022/04/13 11:46:36;;;;;;;1.45;1.30;;;13.30;58.50;;;;;;5052479;28;20029;-63
2022/04/13 11:49:04;;;;;;;1.17;1.17;;;13.30;58.40;;;;;;5048535;28;20045;-64
2022/04/13 11:51:30;;;;;;;1.40;1.30;;;13.30;58.40;;;;;;5055669;28;20067;-63
2022/04/13 11:54:10;;;;;;;1.38;1.27;;;13.30;58.40;;;;;;5056404;28;20029;-63
2022/04/13 11:56:48;;;;;;;1.40;1.30;;;13.30;58.40;;;;;;5056551;28;20029;-63
2022/04/13 11:59:50;;;;;;;1.02;1.02;;;13.30;58.40;;;;;;5056109;28;20036;-63
2022/04/13 12:02:35;;;;;;;1.50;1.40;;;13.30;58.30;;;;;;5055709;28;20447;-64
2022/04/13 12:05:06;;;;;;;1.15;1.10;;;13.30;58.30;;;;;;5054759;28;20353;-64
2022/04/13 12:08:24;;;;;;;1.67;1.58;;;13.30;58.30;;;;;;5056010;28;20371;-64
2022/04/13 12:10:57;;;;;;;1.20;1.10;;;13.30;58.30;;;;;;5043809;28;20037;-64
2022/04/13 12:13:24;;;;;;;1.30;1.20;;;13.30;58.30;;;;;;5054857;28;20078;-64
2022/04/13 12:15:52;;;;;;;1.10;1.10;;;13.30;58.20;;;;;;5055645;28;20039;-65
2022/04/13 12:39:16;;;;;;;1.30;1.20;;;13.30;58.20;;;;;;5035967;28;20099;-64
2022/04/13 12:41:42;;;;;;;1.20;1.20;;;13.30;58.20;;;;;;5035651;28;20028;-63
2022/04/13 12:44:18;;;;;;;1.15;1.10;;;13.30;58.20;;;;;;5034422;28;20049;-63
2022/04/13 12:46:50;;;;;;;1.50;1.40;;;13.30;58.20;;;;;;5034601;28;20038;-64
2022/04/13 12:49:21;;;;;;;1.48;1.30;;;13.30;58.30;;;;;;5018087;28;20044;-65
2022/04/13 13:05:15;;;;;;;1.52;1.20;;;13.20;58.30;;;;;;5035425;28;20040;-65
2022/04/13 13:24:49;;;;;;;1.20;1.20;;;13.00;58.40;;;;;;5034760;28;20101;-64
2022/04/13 13:27:21;;;;;;;1.30;1.20;;;13.00;58.40;;;;;;5034655;28;20068;-64
2022/04/13 13:29:48;;;;;;;1.42;1.33;;;13.00;58.50;;;;;;5034454;28;20116;-64
2022/04/13 13:32:18;;;;;;;1.40;1.30;;;13.00;58.50;;;;;;5034563;28;20391;-64
2022/04/13 13:38:11;;;;;;;1.60;1.50;;;12.90;58.60;;;;;;5034310;28;20102;-64
2022/04/13 13:43:59;;;;;;;1.55;1.40;;;12.90;58.70;;;;;;5034043;28;20056;-64
2022/04/13 13:46:25;;;;;;;1.60;1.50;;;12.80;58.70;;;;;;5034139;28;20033;-64
2022/04/13 13:48:51;;;;;;;1.50;1.40;;;12.80;58.70;;;;;;5034084;28;20025;-64
2022/04/13 13:51:18;;;;;;;1.48;1.38;;;12.80;58.80;;;;;;5033909;28;20079;-64
2022/04/13 14:03:50;;;;;;;1.40;1.30;;;12.80;58.90;;;;;;5034122;28;20052;-64
2022/04/13 14:06:19;;;;;;;1.60;1.50;;;12.80;58.80;;;;;;5033520;28;20455;-64
2022/04/13 14:08:50;;;;;;;1.38;1.27;;;12.80;58.90;;;;;;5033788;28;20088;-64